sensor_id;sensor_type;location;lat;lon;timestamp;temperature;humidity
49777;DHT22;35673;51.482;7.436;2023-03-01T00:01:01;1.50;71.70
49777;DHT22;35673;51.482;7.436;2023-03-01T00:03:27;1.60;72.00
49777;DHT22;35673;51.482;7.436;2023-03-01T00:05:52;1.50;71.80
49777;DHT22;35673;51.482;7.436;2023-03-01T00:08:18;1.50;72.00
49777;DHT22;35673;51.482;7.436;2023-03-01T00:10:43;1.50;71.90
49777;DHT22;35673;51.482;7.436;2023-03-01T00:13:09;1.50;71.90
49777;DHT22;35673;51.482;7.436;2023-03-01T00:15:37;1.50;71.90
49777;DHT22;35673;51.482;7.436;2023-03-01T00:18:02;1.40;71.80
49777;DHT22;35673;51.482;7.436;2023-03-01T00:20:28;1.40;72.00
49777;DHT22;35673;51.482;7.436;2023-03-01T00:22:53;1.40;72.30
49777;DHT22;35673;51.482;7.436;2023-03-01T00:25:19;1.30;72.20
49777;DHT22;35673;51.482;7.436;2023-03-01T00:27:46;1.30;72.00
49777;DHT22;35673;51.482;7.436;2023-03-01T00:30:11;1.30;72.00
49777;DHT22;35673;51.482;7.436;2023-03-01T00:32:37;1.30;72.30
49777;DHT22;35673;51.482;7.436;2023-03-01T00:35:02;1.30;72.30
49777;DHT22;35673;51.482;7.436;2023-03-01T00:37:28;1.30;72.50
49777;DHT22;35673;51.482;7.436;2023-03-01T00:39:53;1.30;72.30
49777;DHT22;35673;51.482;7.436;2023-03-01T00:42:19;1.30;72.20
49777;DHT22;35673;51.482;7.436;2023-03-01T00:44:44;1.20;72.40
49777;DHT22;35673;51.482;7.436;2023-03-01T00:47:10;1.20;72.30
49777;DHT22;35673;51.482;7.436;2023-03-01T00:49:35;1.20;72.30
49777;DHT22;35673;51.482;7.436;2023-03-01T00:52:01;1.20;72.40
49777;DHT22;35673;51.482;7.436;2023-03-01T00:54:26;1.10;72.20
49777;DHT22;35673;51.482;7.436;2023-03-01T00:56:52;1.10;72.40
49777;DHT22;35673;51.482;7.436;2023-03-01T00:59:17;1.10;72.40
49777;DHT22;35673;51.482;7.436;2023-03-01T01:01:42;1.10;72.60
49777;DHT22;35673;51.482;7.436;2023-03-01T01:04:09;1.00;72.70
49777;DHT22;35673;51.482;7.436;2023-03-01T01:06:36;1.00;72.70
49777;DHT22;35673;51.482;7.436;2023-03-01T01:09:03;1.00;72.90
49777;DHT22;35673;51.482;7.436;2023-03-01T01:11:29;1.00;72.90
49777;DHT22;35673;51.482;7.436;2023-03-01T01:13:54;1.00;72.90
49777;DHT22;35673;51.482;7.436;2023-03-01T01:16:21;1.00;73.00
49777;DHT22;35673;51.482;7.436;2023-03-01T01:18:46;0.90;73.40
49777;DHT22;35673;51.482;7.436;2023-03-01T01:21:13;0.80;74.30
49777;DHT22;35673;51.482;7.436;2023-03-01T01:23:39;0.70;73.70
49777;DHT22;35673;51.482;7.436;2023-03-01T01:26:06;0.70;73.80
49777;DHT22;35673;51.482;7.436;2023-03-01T01:28:31;0.60;73.90
49777;DHT22;35673;51.482;7.436;2023-03-01T01:30:57;0.50;74.40
49777;DHT22;35673;51.482;7.436;2023-03-01T01:33:22;0.40;74.60
49777;DHT22;35673;51.482;7.436;2023-03-01T01:35:48;0.40;74.80
49777;DHT22;35673;51.482;7.436;2023-03-01T01:38:13;0.40;74.50
49777;DHT22;35673;51.482;7.436;2023-03-01T01:40:43;0.40;74.80
49777;DHT22;35673;51.482;7.436;2023-03-01T01:43:13;0.40;74.90
49777;DHT22;35673;51.482;7.436;2023-03-01T01:45:41;0.30;74.80
49777;DHT22;35673;51.482;7.436;2023-03-01T01:48:10;0.30;75.00
49777;DHT22;35673;51.482;7.436;2023-03-01T01:50:36;0.30;74.90
49777;DHT22;35673;51.482;7.436;2023-03-01T01:53:05;0.30;74.70
49777;DHT22;35673;51.482;7.436;2023-03-01T01:55:31;0.30;75.10
49777;DHT22;35673;51.482;7.436;2023-03-01T01:57:58;0.30;75.00
49777;DHT22;35673;51.482;7.436;2023-03-01T02:00:26;0.30;75.00
49777;DHT22;35673;51.482;7.436;2023-03-01T02:02:56;0.40;75.10
49777;DHT22;35673;51.482;7.436;2023-03-01T02:05:28;0.40;74.90
49777;DHT22;35673;51.482;7.436;2023-03-01T02:07:58;0.40;75.10
49777;DHT22;35673;51.482;7.436;2023-03-01T02:10:24;0.40;75.20
49777;DHT22;35673;51.482;7.436;2023-03-01T02:12:51;0.40;75.00
49777;DHT22;35673;51.482;7.436;2023-03-01T02:15:16;0.30;75.00
49777;DHT22;35673;51.482;7.436;2023-03-01T02:17:42;0.30;75.20
49777;DHT22;35673;51.482;7.436;2023-03-01T02:22:34;0.30;75.50
49777;DHT22;35673;51.482;7.436;2023-03-01T02:30:20;0.20;75.30
49777;DHT22;35673;51.482;7.436;2023-03-01T02:32:46;0.20;75.50
49777;DHT22;35673;51.482;7.436;2023-03-01T02:35:13;0.20;75.40
49777;DHT22;35673;51.482;7.436;2023-03-01T02:37:40;0.20;75.60
49777;DHT22;35673;51.482;7.436;2023-03-01T02:40:07;0.10;76.40
49777;DHT22;35673;51.482;7.436;2023-03-01T02:42:40;0.10;75.90
49777;DHT22;35673;51.482;7.436;2023-03-01T02:45:06;0.10;75.90
49777;DHT22;35673;51.482;7.436;2023-03-01T02:47:32;0.20;76.00
49777;DHT22;35673;51.482;7.436;2023-03-01T02:49:57;0.20;76.00
49777;DHT22;35673;51.482;7.436;2023-03-01T02:55:10;0.10;75.90
49777;DHT22;35673;51.482;7.436;2023-03-01T02:57:37;0.10;75.90
49777;DHT22;35673;51.482;7.436;2023-03-01T03:00:07;0.10;76.10
49777;DHT22;35673;51.482;7.436;2023-03-01T03:02:35;0.00;76.10
49777;DHT22;35673;51.482;7.436;2023-03-01T03:05:07;0.10;76.30
49777;DHT22;35673;51.482;7.436;2023-03-01T03:07:34;0.10;76.30
49777;DHT22;35673;51.482;7.436;2023-03-01T03:10:00;0.00;76.30
49777;DHT22;35673;51.482;7.436;2023-03-01T03:12:26;0.00;76.40
49777;DHT22;35673;51.482;7.436;2023-03-01T03:14:52;0.00;76.50
49777;DHT22;35673;51.482;7.436;2023-03-01T03:17:17;-0.10;76.30
49777;DHT22;35673;51.482;7.436;2023-03-01T03:19:43;-0.10;76.70
49777;DHT22;35673;51.482;7.436;2023-03-01T03:22:13;-0.20;76.50
49777;DHT22;35673;51.482;7.436;2023-03-01T03:24:38;-0.30;76.70
49777;DHT22;35673;51.482;7.436;2023-03-01T03:27:04;-0.30;77.00
49777;DHT22;35673;51.482;7.436;2023-03-01T03:29:30;-0.30;76.80
49777;DHT22;35673;51.482;7.436;2023-03-01T03:31:55;-0.30;76.80
49777;DHT22;35673;51.482;7.436;2023-03-01T03:34:21;-0.40;77.00
49777;DHT22;35673;51.482;7.436;2023-03-01T03:36:46;-0.50;76.80
49777;DHT22;35673;51.482;7.436;2023-03-01T03:39:12;-0.50;77.20
49777;DHT22;35673;51.482;7.436;2023-03-01T03:41:37;-0.60;77.20
49777;DHT22;35673;51.482;7.436;2023-03-01T03:44:03;-0.60;77.30
49777;DHT22;35673;51.482;7.436;2023-03-01T03:46:28;-0.70;77.30
49777;DHT22;35673;51.482;7.436;2023-03-01T03:48:53;-0.70;77.50
49777;DHT22;35673;51.482;7.436;2023-03-01T03:51:19;-0.70;77.50
49777;DHT22;35673;51.482;7.436;2023-03-01T03:53:45;-0.80;77.90
49777;DHT22;35673;51.482;7.436;2023-03-01T03:56:11;-1.00;77.60
49777;DHT22;35673;51.482;7.436;2023-03-01T03:58:36;-1.20;78.10
49777;DHT22;35673;51.482;7.436;2023-03-01T04:01:02;-1.30;79.10
49777;DHT22;35673;51.482;7.436;2023-03-01T04:03:28;-1.40;79.20
49777;DHT22;35673;51.482;7.436;2023-03-01T04:05:53;-1.40;79.20
49777;DHT22;35673;51.482;7.436;2023-03-01T04:08:20;-1.40;79.70
49777;DHT22;35673;51.482;7.436;2023-03-01T04:10:47;-1.50;79.80
49777;DHT22;35673;51.482;7.436;2023-03-01T04:13:16;-1.40;80.20
49777;DHT22;35673;51.482;7.436;2023-03-01T04:18:13;-1.30;79.40
49777;DHT22;35673;51.482;7.436;2023-03-01T04:20:39;-1.30;80.00
49777;DHT22;35673;51.482;7.436;2023-03-01T04:23:12;-1.20;80.10
49777;DHT22;35673;51.482;7.436;2023-03-01T04:25:41;-1.20;79.90
49777;DHT22;35673;51.482;7.436;2023-03-01T04:28:08;-1.20;80.10
49777;DHT22;35673;51.482;7.436;2023-03-01T04:30:34;-1.20;80.00
49777;DHT22;35673;51.482;7.436;2023-03-01T04:33:01;-1.20;80.00
49777;DHT22;35673;51.482;7.436;2023-03-01T04:35:27;-1.20;79.80
49777;DHT22;35673;51.482;7.436;2023-03-01T04:37:53;-1.20;80.00
49777;DHT22;35673;51.482;7.436;2023-03-01T04:40:18;-1.20;79.80
49777;DHT22;35673;51.482;7.436;2023-03-01T04:42:44;-1.20;80.10
49777;DHT22;35673;51.482;7.436;2023-03-01T04:45:09;-1.30;80.10
49777;DHT22;35673;51.482;7.436;2023-03-01T04:47:41;-1.30;80.20
49777;DHT22;35673;51.482;7.436;2023-03-01T04:50:08;-1.30;80.30
49777;DHT22;35673;51.482;7.436;2023-03-01T04:52:34;-1.30;80.20
49777;DHT22;35673;51.482;7.436;2023-03-01T04:55:00;-1.40;80.30
49777;DHT22;35673;51.482;7.436;2023-03-01T04:57:25;-1.40;80.30
49777;DHT22;35673;51.482;7.436;2023-03-01T04:59:51;-1.40;80.30
49777;DHT22;35673;51.482;7.436;2023-03-01T05:02:16;-1.40;80.40
49777;DHT22;35673;51.482;7.436;2023-03-01T05:04:42;-1.50;80.30
49777;DHT22;35673;51.482;7.436;2023-03-01T05:07:07;-1.50;80.30
49777;DHT22;35673;51.482;7.436;2023-03-01T05:09:33;-1.50;80.30
49777;DHT22;35673;51.482;7.436;2023-03-01T05:11:59;-1.50;80.30
49777;DHT22;35673;51.482;7.436;2023-03-01T05:14:24;-1.50;80.30
49777;DHT22;35673;51.482;7.436;2023-03-01T05:16:49;-1.50;80.40
49777;DHT22;35673;51.482;7.436;2023-03-01T05:19:15;-1.60;80.50
49777;DHT22;35673;51.482;7.436;2023-03-01T05:21:41;-1.60;80.70
49777;DHT22;35673;51.482;7.436;2023-03-01T05:24:25;-1.60;80.50
49777;DHT22;35673;51.482;7.436;2023-03-01T05:26:52;-1.70;80.50
49777;DHT22;35673;51.482;7.436;2023-03-01T05:29:18;-1.70;80.90
49777;DHT22;35673;51.482;7.436;2023-03-01T05:31:53;-1.70;81.00
49777;DHT22;35673;51.482;7.436;2023-03-01T05:34:23;-1.70;80.90
49777;DHT22;35673;51.482;7.436;2023-03-01T05:36:48;-1.70;81.10
49777;DHT22;35673;51.482;7.436;2023-03-01T05:39:19;-1.80;80.80
49777;DHT22;35673;51.482;7.436;2023-03-01T05:41:45;-1.80;80.80
49777;DHT22;35673;51.482;7.436;2023-03-01T05:44:10;-1.80;80.80
49777;DHT22;35673;51.482;7.436;2023-03-01T05:46:37;-1.90;80.80
49777;DHT22;35673;51.482;7.436;2023-03-01T05:49:02;-1.90;81.40
49777;DHT22;35673;51.482;7.436;2023-03-01T05:51:29;-2.00;80.80
49777;DHT22;35673;51.482;7.436;2023-03-01T05:53:55;-2.10;81.10
49777;DHT22;35673;51.482;7.436;2023-03-01T05:56:20;-2.10;81.60
49777;DHT22;35673;51.482;7.436;2023-03-01T05:58:48;-2.10;81.70
49777;DHT22;35673;51.482;7.436;2023-03-01T06:01:13;-2.10;82.00
49777;DHT22;35673;51.482;7.436;2023-03-01T06:03:38;-2.00;81.80
49777;DHT22;35673;51.482;7.436;2023-03-01T06:06:04;-2.00;81.60
49777;DHT22;35673;51.482;7.436;2023-03-01T06:08:29;-2.00;81.80
49777;DHT22;35673;51.482;7.436;2023-03-01T06:10:55;-2.00;81.70
49777;DHT22;35673;51.482;7.436;2023-03-01T06:13:21;-2.00;81.90
49777;DHT22;35673;51.482;7.436;2023-03-01T06:15:47;-2.00;81.80
49777;DHT22;35673;51.482;7.436;2023-03-01T06:18:12;-2.00;81.80
49777;DHT22;35673;51.482;7.436;2023-03-01T06:20:38;-1.90;82.10
49777;DHT22;35673;51.482;7.436;2023-03-01T06:23:03;-1.90;82.10
49777;DHT22;35673;51.482;7.436;2023-03-01T06:25:29;-1.90;82.30
49777;DHT22;35673;51.482;7.436;2023-03-01T06:27:54;-1.80;82.20
49777;DHT22;35673;51.482;7.436;2023-03-01T06:30:20;-1.80;82.40
49777;DHT22;35673;51.482;7.436;2023-03-01T06:32:46;-1.70;82.80
49777;DHT22;35673;51.482;7.436;2023-03-01T06:35:14;-1.70;82.70
49777;DHT22;35673;51.482;7.436;2023-03-01T06:37:42;-1.60;82.60
49777;DHT22;35673;51.482;7.436;2023-03-01T06:40:08;-1.60;83.00
49777;DHT22;35673;51.482;7.436;2023-03-01T06:42:37;-1.60;82.60
49777;DHT22;35673;51.482;7.436;2023-03-01T06:45:04;-1.60;82.80
49777;DHT22;35673;51.482;7.436;2023-03-01T06:47:29;-1.60;82.80
49777;DHT22;35673;51.482;7.436;2023-03-01T06:49:55;-1.60;82.70
49777;DHT22;35673;51.482;7.436;2023-03-01T06:52:20;-1.60;83.30
49777;DHT22;35673;51.482;7.436;2023-03-01T06:54:46;-1.60;83.50
49777;DHT22;35673;51.482;7.436;2023-03-01T06:57:11;-1.50;83.10
49777;DHT22;35673;51.482;7.436;2023-03-01T06:59:37;-1.50;83.10
49777;DHT22;35673;51.482;7.436;2023-03-01T07:02:02;-1.40;83.00
49777;DHT22;35673;51.482;7.436;2023-03-01T07:04:28;-1.40;82.80
49777;DHT22;35673;51.482;7.436;2023-03-01T07:06:56;-1.40;82.50
49777;DHT22;35673;51.482;7.436;2023-03-01T07:09:22;-1.30;82.80
49777;DHT22;35673;51.482;7.436;2023-03-01T07:11:48;-1.20;83.20
49777;DHT22;35673;51.482;7.436;2023-03-01T07:14:13;-1.10;82.80
49777;DHT22;35673;51.482;7.436;2023-03-01T07:16:39;-1.10;82.50
49777;DHT22;35673;51.482;7.436;2023-03-01T07:19:04;-1.00;82.60
49777;DHT22;35673;51.482;7.436;2023-03-01T07:21:30;-0.90;82.50
49777;DHT22;35673;51.482;7.436;2023-03-01T07:23:56;-0.80;83.00
49777;DHT22;35673;51.482;7.436;2023-03-01T07:26:21;-0.80;82.40
49777;DHT22;35673;51.482;7.436;2023-03-01T07:28:47;-0.70;82.50
49777;DHT22;35673;51.482;7.436;2023-03-01T07:31:12;-0.60;82.60
49777;DHT22;35673;51.482;7.436;2023-03-01T07:33:38;-0.50;82.10
49777;DHT22;35673;51.482;7.436;2023-03-01T07:36:04;-0.50;82.00
49777;DHT22;35673;51.482;7.436;2023-03-01T07:38:29;-0.40;82.40
49777;DHT22;35673;51.482;7.436;2023-03-01T07:40:59;-0.30;82.30
49777;DHT22;35673;51.482;7.436;2023-03-01T07:43:24;-0.30;82.00
49777;DHT22;35673;51.482;7.436;2023-03-01T07:45:50;-0.20;81.30
49777;DHT22;35673;51.482;7.436;2023-03-01T07:48:15;-0.20;81.50
49777;DHT22;35673;51.482;7.436;2023-03-01T07:50:41;-0.10;81.00
49777;DHT22;35673;51.482;7.436;2023-03-01T07:53:06;0.00;81.30
49777;DHT22;35673;51.482;7.436;2023-03-01T07:55:32;0.20;81.00
49777;DHT22;35673;51.482;7.436;2023-03-01T07:57:57;0.30;80.60
49777;DHT22;35673;51.482;7.436;2023-03-01T08:00:22;0.60;79.80
49777;DHT22;35673;51.482;7.436;2023-03-01T08:02:48;0.80;79.50
49777;DHT22;35673;51.482;7.436;2023-03-01T08:05:13;1.10;78.70
49777;DHT22;35673;51.482;7.436;2023-03-01T08:07:39;1.40;78.10
49777;DHT22;35673;51.482;7.436;2023-03-01T08:10:04;1.60;76.90
49777;DHT22;35673;51.482;7.436;2023-03-01T08:12:30;1.90;76.00
49777;DHT22;35673;51.482;7.436;2023-03-01T08:14:56;2.00;75.40
49777;DHT22;35673;51.482;7.436;2023-03-01T08:17:22;2.20;75.10
49777;DHT22;35673;51.482;7.436;2023-03-01T08:19:47;2.40;75.10
49777;DHT22;35673;51.482;7.436;2023-03-01T08:22:13;2.60;74.30
49777;DHT22;35673;51.482;7.436;2023-03-01T08:24:38;2.80;73.60
49777;DHT22;35673;51.482;7.436;2023-03-01T08:27:04;3.00;73.50
49777;DHT22;35673;51.482;7.436;2023-03-01T08:29:33;3.20;72.50
49777;DHT22;35673;51.482;7.436;2023-03-01T08:31:58;3.40;72.10
49777;DHT22;35673;51.482;7.436;2023-03-01T08:34:23;3.60;71.80
49777;DHT22;35673;51.482;7.436;2023-03-01T08:36:49;3.80;71.20
49777;DHT22;35673;51.482;7.436;2023-03-01T08:39:17;4.00;71.00
49777;DHT22;35673;51.482;7.436;2023-03-01T08:41:43;4.20;70.20
49777;DHT22;35673;51.482;7.436;2023-03-01T08:44:09;4.30;69.60
49777;DHT22;35673;51.482;7.436;2023-03-01T08:46:36;4.30;69.40
49777;DHT22;35673;51.482;7.436;2023-03-01T08:49:05;4.30;69.30
49777;DHT22;35673;51.482;7.436;2023-03-01T08:51:32;4.50;69.60
49777;DHT22;35673;51.482;7.436;2023-03-01T08:54:05;4.80;69.10
49777;DHT22;35673;51.482;7.436;2023-03-01T08:56:30;5.10;67.10
49777;DHT22;35673;51.482;7.436;2023-03-01T08:58:56;5.20;67.50
49777;DHT22;35673;51.482;7.436;2023-03-01T09:01:21;5.40;66.70
49777;DHT22;35673;51.482;7.436;2023-03-01T09:03:47;5.50;66.20
49777;DHT22;35673;51.482;7.436;2023-03-01T09:06:13;5.60;66.10
49777;DHT22;35673;51.482;7.436;2023-03-01T09:08:40;5.50;65.70
49777;DHT22;35673;51.482;7.436;2023-03-01T09:11:06;5.50;65.90
49777;DHT22;35673;51.482;7.436;2023-03-01T09:13:32;5.50;65.30
49777;DHT22;35673;51.482;7.436;2023-03-01T09:15:58;5.40;65.00
49777;DHT22;35673;51.482;7.436;2023-03-01T09:18:24;5.40;65.20
49777;DHT22;35673;51.482;7.436;2023-03-01T09:20:49;5.60;65.30
49777;DHT22;35673;51.482;7.436;2023-03-01T09:23:15;5.80;65.00
49777;DHT22;35673;51.482;7.436;2023-03-01T09:25:40;5.90;64.70
49777;DHT22;35673;51.482;7.436;2023-03-01T09:28:06;6.00;63.90
49777;DHT22;35673;51.482;7.436;2023-03-01T09:30:31;6.10;63.80
49777;DHT22;35673;51.482;7.436;2023-03-01T09:32:57;6.10;63.60
49777;DHT22;35673;51.482;7.436;2023-03-01T09:35:22;6.00;64.00
49777;DHT22;35673;51.482;7.436;2023-03-01T09:37:48;5.80;64.00
49777;DHT22;35673;51.482;7.436;2023-03-01T09:40:16;5.90;64.10
49777;DHT22;35673;51.482;7.436;2023-03-01T09:42:46;6.00;64.30
49777;DHT22;35673;51.482;7.436;2023-03-01T09:45:17;6.10;63.80
49777;DHT22;35673;51.482;7.436;2023-03-01T09:47:47;6.20;63.90
49777;DHT22;35673;51.482;7.436;2023-03-01T09:52:44;6.40;63.70
49777;DHT22;35673;51.482;7.436;2023-03-01T09:55:12;6.40;62.90
49777;DHT22;35673;51.482;7.436;2023-03-01T09:57:41;6.40;62.10
49777;DHT22;35673;51.482;7.436;2023-03-01T10:00:12;6.30;62.20
49777;DHT22;35673;51.482;7.436;2023-03-01T10:02:41;6.20;62.40
49777;DHT22;35673;51.482;7.436;2023-03-01T10:05:19;6.40;62.60
49777;DHT22;35673;51.482;7.436;2023-03-01T10:08:06;6.40;61.90
49777;DHT22;35673;51.482;7.436;2023-03-01T10:10:40;6.50;62.80
49777;DHT22;35673;51.482;7.436;2023-03-01T10:13:55;6.50;61.90
49777;DHT22;35673;51.482;7.436;2023-03-01T10:15:55;6.70;61.50
49777;DHT22;35673;51.482;7.436;2023-03-01T10:18:24;6.80;60.90
49777;DHT22;35673;51.482;7.436;2023-03-01T10:23:16;7.30;60.40
49777;DHT22;35673;51.482;7.436;2023-03-01T10:28:17;7.70;59.40
49777;DHT22;35673;51.482;7.436;2023-03-01T10:30:45;7.80;59.50
49777;DHT22;35673;51.482;7.436;2023-03-01T10:33:21;8.20;58.70
49777;DHT22;35673;51.482;7.436;2023-03-01T10:35:48;8.30;57.80
49777;DHT22;35673;51.482;7.436;2023-03-01T10:38:14;8.20;58.60
49777;DHT22;35673;51.482;7.436;2023-03-01T10:40:57;8.00;58.30
49777;DHT22;35673;51.482;7.436;2023-03-01T10:43:24;8.00;58.40
49777;DHT22;35673;51.482;7.436;2023-03-01T10:45:50;8.00;59.10
49777;DHT22;35673;51.482;7.436;2023-03-01T10:50:43;8.10;59.00
49777;DHT22;35673;51.482;7.436;2023-03-01T10:53:42;8.00;59.40
49777;DHT22;35673;51.482;7.436;2023-03-01T10:58:29;8.70;58.80
49777;DHT22;35673;51.482;7.436;2023-03-01T11:00:55;8.60;57.80
49777;DHT22;35673;51.482;7.436;2023-03-01T11:03:26;8.20;57.60
49777;DHT22;35673;51.482;7.436;2023-03-01T11:08:29;7.60;59.00
49777;DHT22;35673;51.482;7.436;2023-03-01T11:11:03;7.50;59.10
49777;DHT22;35673;51.482;7.436;2023-03-01T11:13:29;7.60;60.60
49777;DHT22;35673;51.482;7.436;2023-03-01T11:16:01;8.10;60.00
49777;DHT22;35673;51.482;7.436;2023-03-01T11:18:27;8.10;58.70
49777;DHT22;35673;51.482;7.436;2023-03-01T11:20:54;8.00;59.10
49777;DHT22;35673;51.482;7.436;2023-03-01T11:23:20;7.90;59.20
49777;DHT22;35673;51.482;7.436;2023-03-01T11:26:05;8.10;59.10
49777;DHT22;35673;51.482;7.436;2023-03-01T11:28:32;8.80;59.00
49777;DHT22;35673;51.482;7.436;2023-03-01T11:31:07;10.30;60.50
49777;DHT22;35673;51.482;7.436;2023-03-01T11:33:37;10.60;60.10
49777;DHT22;35673;51.482;7.436;2023-03-01T11:38:32;10.80;59.50
49777;DHT22;35673;51.482;7.436;2023-03-01T11:41:11;10.60;58.50
49777;DHT22;35673;51.482;7.436;2023-03-01T11:43:56;10.00;58.80
49777;DHT22;35673;51.482;7.436;2023-03-01T11:54:35;12.10;59.00
49777;DHT22;35673;51.482;7.436;2023-03-01T12:08:08;11.60;54.80
49777;DHT22;35673;51.482;7.436;2023-03-01T12:10:23;10.90;53.30
49777;DHT22;35673;51.482;7.436;2023-03-01T12:15:34;11.80;53.90
49777;DHT22;35673;51.482;7.436;2023-03-01T12:20:55;13.10;56.60
49777;DHT22;35673;51.482;7.436;2023-03-01T12:38:42;11.90;53.00
49777;DHT22;35673;51.482;7.436;2023-03-01T12:48:45;16.80;46.50
49777;DHT22;35673;51.482;7.436;2023-03-01T12:51:20;18.10;48.20
49777;DHT22;35673;51.482;7.436;2023-03-01T12:53:48;18.20;46.30
49777;DHT22;35673;51.482;7.436;2023-03-01T12:56:16;18.50;44.70
49777;DHT22;35673;51.482;7.436;2023-03-01T12:58:46;19.10;44.90
49777;DHT22;35673;51.482;7.436;2023-03-01T13:11:22;16.70;45.50
49777;DHT22;35673;51.482;7.436;2023-03-01T13:13:48;15.60;48.80
49777;DHT22;35673;51.482;7.436;2023-03-01T13:19:07;17.30;46.80
49777;DHT22;35673;51.482;7.436;2023-03-01T13:21:35;16.60;46.70
49777;DHT22;35673;51.482;7.436;2023-03-01T13:24:00;14.60;51.70
49777;DHT22;35673;51.482;7.436;2023-03-01T13:26:25;14.60;50.40
49777;DHT22;35673;51.482;7.436;2023-03-01T13:28:52;15.40;48.80
49777;DHT22;35673;51.482;7.436;2023-03-01T13:33:49;16.30;45.40
49777;DHT22;35673;51.482;7.436;2023-03-01T13:44:21;17.70;46.50
49777;DHT22;35673;51.482;7.436;2023-03-01T13:46:52;16.40;45.60
49777;DHT22;35673;51.482;7.436;2023-03-01T13:49:18;15.90;45.10
49777;DHT22;35673;51.482;7.436;2023-03-01T13:51:48;15.70;44.90
49777;DHT22;35673;51.482;7.436;2023-03-01T13:54:14;15.30;45.70
49777;DHT22;35673;51.482;7.436;2023-03-01T13:56:40;15.70;46.40
49777;DHT22;35673;51.482;7.436;2023-03-01T13:59:13;16.80;45.90
49777;DHT22;35673;51.482;7.436;2023-03-01T14:01:39;16.90;43.80
49777;DHT22;35673;51.482;7.436;2023-03-01T14:06:48;18.30;44.10
49777;DHT22;35673;51.482;7.436;2023-03-01T14:09:18;19.00;40.90
49777;DHT22;35673;51.482;7.436;2023-03-01T14:19:28;19.60;42.80
49777;DHT22;35673;51.482;7.436;2023-03-01T14:22:03;20.70;41.30
49777;DHT22;35673;51.482;7.436;2023-03-01T14:24:29;21.10;40.90
49777;DHT22;35673;51.482;7.436;2023-03-01T14:26:57;21.20;39.00
49777;DHT22;35673;51.482;7.436;2023-03-01T14:29:24;20.90;40.20
49777;DHT22;35673;51.482;7.436;2023-03-01T14:31:49;21.50;40.70
49777;DHT22;35673;51.482;7.436;2023-03-01T14:34:19;22.50;42.60
49777;DHT22;35673;51.482;7.436;2023-03-01T14:36:45;23.20;40.10
49777;DHT22;35673;51.482;7.436;2023-03-01T14:39:17;23.90;39.10
49777;DHT22;35673;51.482;7.436;2023-03-01T14:41:44;24.20;39.70
49777;DHT22;35673;51.482;7.436;2023-03-01T14:44:13;24.20;37.70
49777;DHT22;35673;51.482;7.436;2023-03-01T14:46:40;24.00;39.00
49777;DHT22;35673;51.482;7.436;2023-03-01T14:49:10;24.30;40.80
49777;DHT22;35673;51.482;7.436;2023-03-01T14:51:41;24.70;38.10
49777;DHT22;35673;51.482;7.436;2023-03-01T14:54:21;25.60;36.50
49777;DHT22;35673;51.482;7.436;2023-03-01T14:56:49;26.40;36.30
49777;DHT22;35673;51.482;7.436;2023-03-01T14:59:15;26.90;35.40
49777;DHT22;35673;51.482;7.436;2023-03-01T15:01:43;27.30;35.60
49777;DHT22;35673;51.482;7.436;2023-03-01T15:04:11;27.30;34.50
49777;DHT22;35673;51.482;7.436;2023-03-01T15:06:37;27.20;34.90
49777;DHT22;35673;51.482;7.436;2023-03-01T15:09:03;26.90;36.90
49777;DHT22;35673;51.482;7.436;2023-03-01T15:11:29;27.50;35.00
49777;DHT22;35673;51.482;7.436;2023-03-01T15:13:55;27.50;36.10
49777;DHT22;35673;51.482;7.436;2023-03-01T15:16:29;27.00;38.50
49777;DHT22;35673;51.482;7.436;2023-03-01T15:19:05;26.60;37.00
49777;DHT22;35673;51.482;7.436;2023-03-01T15:21:34;26.80;38.50
49777;DHT22;35673;51.482;7.436;2023-03-01T15:26:51;26.80;37.70
49777;DHT22;35673;51.482;7.436;2023-03-01T15:29:20;26.60;37.40
49777;DHT22;35673;51.482;7.436;2023-03-01T15:32:00;26.30;37.50
49777;DHT22;35673;51.482;7.436;2023-03-01T15:34:27;26.50;36.70
49777;DHT22;35673;51.482;7.436;2023-03-01T15:36:53;26.50;37.90
49777;DHT22;35673;51.482;7.436;2023-03-01T15:39:26;26.70;36.40
49777;DHT22;35673;51.482;7.436;2023-03-01T15:41:52;26.40;35.50
49777;DHT22;35673;51.482;7.436;2023-03-01T15:44:25;25.90;37.20
49777;DHT22;35673;51.482;7.436;2023-03-01T15:46:50;25.60;36.70
49777;DHT22;35673;51.482;7.436;2023-03-01T15:51:44;25.20;36.40
49777;DHT22;35673;51.482;7.436;2023-03-01T15:54:20;24.70;37.00
49777;DHT22;35673;51.482;7.436;2023-03-01T15:56:46;24.90;37.40
49777;DHT22;35673;51.482;7.436;2023-03-01T15:59:12;24.50;37.10
49777;DHT22;35673;51.482;7.436;2023-03-01T16:01:39;23.70;38.90
49777;DHT22;35673;51.482;7.436;2023-03-01T16:04:05;22.70;39.00
49777;DHT22;35673;51.482;7.436;2023-03-01T16:06:30;21.50;40.80
49777;DHT22;35673;51.482;7.436;2023-03-01T16:08:56;20.40;43.50
49777;DHT22;35673;51.482;7.436;2023-03-01T16:11:21;20.10;41.70
49777;DHT22;35673;51.482;7.436;2023-03-01T16:13:47;19.70;41.20
49777;DHT22;35673;51.482;7.436;2023-03-01T16:16:14;18.50;42.30
49777;DHT22;35673;51.482;7.436;2023-03-01T16:18:44;17.10;43.60
49777;DHT22;35673;51.482;7.436;2023-03-01T16:21:12;16.10;44.50
49777;DHT22;35673;51.482;7.436;2023-03-01T16:23:37;15.20;47.30
49777;DHT22;35673;51.482;7.436;2023-03-01T16:26:03;14.50;46.40
49777;DHT22;35673;51.482;7.436;2023-03-01T16:28:28;14.00;46.70
49777;DHT22;35673;51.482;7.436;2023-03-01T16:30:54;13.60;52.10
49777;DHT22;35673;51.482;7.436;2023-03-01T16:33:19;12.80;50.10
49777;DHT22;35673;51.482;7.436;2023-03-01T16:35:45;12.10;48.70
49777;DHT22;35673;51.482;7.436;2023-03-01T16:38:10;11.50;50.90
49777;DHT22;35673;51.482;7.436;2023-03-01T16:40:36;11.10;50.80
49777;DHT22;35673;51.482;7.436;2023-03-01T16:43:02;10.90;50.80
49777;DHT22;35673;51.482;7.436;2023-03-01T16:45:29;10.60;50.90
49777;DHT22;35673;51.482;7.436;2023-03-01T16:47:57;10.40;51.60
49777;DHT22;35673;51.482;7.436;2023-03-01T16:50:23;10.20;51.20
49777;DHT22;35673;51.482;7.436;2023-03-01T16:52:49;10.20;51.20
49777;DHT22;35673;51.482;7.436;2023-03-01T16:55:14;10.10;50.70
49777;DHT22;35673;51.482;7.436;2023-03-01T16:57:40;10.00;51.00
49777;DHT22;35673;51.482;7.436;2023-03-01T17:00:06;10.00;51.00
49777;DHT22;35673;51.482;7.436;2023-03-01T17:02:33;10.00;50.70
49777;DHT22;35673;51.482;7.436;2023-03-01T17:04:59;9.60;51.00
49777;DHT22;35673;51.482;7.436;2023-03-01T17:07:24;9.40;51.70
49777;DHT22;35673;51.482;7.436;2023-03-01T17:09:50;9.30;51.80
49777;DHT22;35673;51.482;7.436;2023-03-01T17:12:15;9.10;51.90
49777;DHT22;35673;51.482;7.436;2023-03-01T17:14:41;9.00;51.80
49777;DHT22;35673;51.482;7.436;2023-03-01T17:17:07;8.80;52.00
49777;DHT22;35673;51.482;7.436;2023-03-01T17:19:33;8.70;52.00
49777;DHT22;35673;51.482;7.436;2023-03-01T17:22:01;8.60;52.20
49777;DHT22;35673;51.482;7.436;2023-03-01T17:24:26;8.50;51.80
49777;DHT22;35673;51.482;7.436;2023-03-01T17:26:52;8.40;52.30
49777;DHT22;35673;51.482;7.436;2023-03-01T17:29:17;8.20;52.70
49777;DHT22;35673;51.482;7.436;2023-03-01T17:31:43;8.20;52.40
49777;DHT22;35673;51.482;7.436;2023-03-01T17:34:08;8.20;52.50